Chloride, New Mexico
Current Conditions -  °F | °C
As of 11:53 PM on Saturday 22 Nov 2014 (Local Time) from KTCS Reporting Station
Clear Clear  
Wind Chill: 45°   Ceiling: Unl
Heat Index: 48°   Visibility: 10mi
Dew Point: 17°   Wind: 7mph
Humidity: 29%   Direction: 290°WNW
Pressure: 29.86"   Gusts: NA
Location:  33.3023°N, 107.76°W
Report Text: KTCS 230653Z AUTO 29006KT 10SM CLR 09/M08 A2986 RMK AO2 SLP065 T00891083 401780017 TSNO
Loading
Personal Weather Stations






























Interactive Weather Map New forecast layout! Learn more

10-Day Weather Forecast

Advertisements
Track Severe Weather on mobile